This is the latest recevied weather packets stored in our database for station/object K7SKM. If no packets are shown the sender has not sent any weather packets the latest 10 day(s).
| Time | Temp. | Humidity | Pressure | Rain* | Wind** | Luminosity | Snow |
|---|---|---|---|---|---|---|---|
| 1777606656 | 18.89° C | 51% | 1019.9 hPa | 0 mm | - | 0 W/m² | - |
| 1777606352 | 19.44° C | 52% | 1020 hPa | 0 mm | - | 0 W/m² | - |
| 1777606046 | 20° C | 50% | 1019.9 hPa | 0 mm | - | 0 W/m² | - |
| 1777605742 | 20° C | 48% | 1019.8 hPa | 0 mm | - | 0 W/m² | - |
| 1777605441 | 20.56° C | 47% | 1019.8 hPa | 0 mm | - | 0 W/m² | - |
| 1777605139 | 21.11° C | 47% | 1020 hPa | 0 mm | - | 1 W/m² | - |
| 1777604834 | 21.67° C | 45% | 1019.9 hPa | 0 mm | - | 3 W/m² | - |
| 1777604530 | 21.67° C | 44% | 1019.9 hPa | 0 mm | - | 4 W/m² | - |
| 1777604226 | 22.22° C | 44% | 1019.9 hPa | 0 mm | - | 5 W/m² | - |
| 1777603922 | 22.78° C | 39% | 1019.8 hPa | 0 mm | - | 8 W/m² | - |
| 1777603619 | 22.22° C | 39% | 1019.8 hPa | 0 mm | - | 10 W/m² | - |
| 1777603315 | 22.22° C | 39% | 1019.8 hPa | 0 mm | - | 11 W/m² | - |
| 1777603010 | 22.78° C | 37% | 1020 hPa | 0 mm | - | 12 W/m² | - |
| 1777602706 | 22.78° C | 35% | 1020.1 hPa | 0 mm | - | 16 W/m² | - |
| 1777602401 | 23.33° C | 34% | 1020 hPa | 0 mm | - | 18 W/m² | - |
| 1777602098 | 23.33° C | 34% | 1020 hPa | 0 mm | - | 21 W/m² | - |
| 1777601793 | 23.33° C | 34% | 1020 hPa | 0 mm | - | 23 W/m² | - |
| 1777601488 | 23.33° C | 34% | 1020 hPa | 0 mm | - | 25 W/m² | - |
| 1777601184 | 23.33° C | 34% | 1020.2 hPa | 0 mm | - | 27 W/m² | - |
| 1777600882 | 23.89° C | 34% | 1020.2 hPa | 0 mm | - | 28 W/m² | - |
| 1777600577 | 23.89° C | 33% | 1020.1 hPa | 0 mm | - | 29 W/m² | - |
| 1777600273 | 23.89° C | 35% | 1020.2 hPa | 0 mm | - | 30 W/m² | - |
| 1777599968 | 23.89° C | 36% | 1020.3 hPa | 0 mm | - | 31 W/m² | - |
| 1777599665 | 23.89° C | 34% | 1020.1 hPa | 0 mm | - | 32 W/m² | - |
| 1777599362 | 23.89° C | 35% | 1020.3 hPa | 0 mm | - | 34 W/m² | - |
* Rain latest hour (hover to see other rain measurements)
** Current wind speed in m/s (hover to see current wind gust speed)